createdAt,value
2022-09-03T00:00:55.553Z,63.57
2022-09-03T00:01:55.647Z,63.38
2022-09-03T00:02:55.597Z,63.28
2022-09-03T00:03:55.510Z,63.38
2022-09-03T00:04:55.494Z,62.99
2022-09-03T00:05:55.482Z,63.38
2022-09-03T00:06:55.461Z,63.51
2022-09-03T00:07:55.444Z,63.28
2022-09-03T00:08:55.428Z,63.28
2022-09-03T00:09:55.415Z,62.90
2022-09-03T00:10:55.402Z,62.93
2022-09-03T00:11:55.384Z,63.22
2022-09-03T00:12:55.375Z,63.31
2022-09-03T00:13:55.354Z,63.22
2022-09-03T00:14:55.341Z,63.18
2022-09-03T00:15:55.383Z,63.31
2022-09-03T00:16:55.308Z,63.18
2022-09-03T00:17:55.291Z,63.28
2022-09-03T00:18:55.279Z,63.18
2022-09-03T00:19:55.262Z,63.67
2022-09-03T00:20:55.245Z,64.25
2022-09-03T00:21:55.229Z,63.95
2022-09-03T00:22:55.213Z,64.15
2022-09-03T00:23:55.200Z,63.86
2022-09-03T00:24:55.181Z,64.08
2022-09-03T00:25:55.165Z,63.86
2022-09-03T00:26:55.150Z,63.76
2022-09-03T00:27:55.132Z,63.67
2022-09-03T00:28:55.119Z,63.79
2022-09-03T00:29:55.108Z,63.95
2022-09-03T00:30:55.160Z,64.34
2022-09-03T00:31:55.080Z,63.76
2022-09-03T00:32:55.058Z,63.79
2022-09-03T00:33:55.040Z,63.76
2022-09-03T00:34:55.028Z,64.25
2022-09-03T00:35:55.009Z,64.25
2022-09-03T00:36:54.993Z,64.34
2022-09-03T00:37:54.987Z,63.86
2022-09-03T00:38:54.968Z,64.25
2022-09-03T00:39:54.971Z,64.43
2022-09-03T00:40:54.937Z,64.25
2022-09-03T00:41:54.921Z,64.43
2022-09-03T00:42:54.906Z,64.34
2022-09-03T00:43:54.892Z,64.15
2022-09-03T00:44:54.875Z,64.15
2022-09-03T00:45:54.899Z,64.34
2022-09-03T00:46:54.838Z,64.53
2022-09-03T00:47:54.836Z,64.82
2022-09-03T00:48:54.810Z,64.82
2022-09-03T00:49:54.796Z,64.82
2022-09-03T00:50:54.779Z,64.63
2022-09-03T00:51:54.764Z,64.82
2022-09-03T00:52:54.742Z,64.82
2022-09-03T00:53:54.731Z,65.01
2022-09-03T00:54:54.714Z,65.20
2022-09-03T00:55:54.701Z,64.82
2022-09-03T00:56:54.685Z,64.89
2022-09-03T00:57:54.669Z,65.08
2022-09-03T00:58:54.653Z,64.92
2022-09-03T00:59:54.640Z,65.01
2022-09-03T01:00:54.618Z,65.20
2022-09-03T01:01:54.752Z,65.11
2022-09-03T01:02:54.724Z,64.98
2022-09-03T01:03:54.573Z,65.08
2022-09-03T01:04:54.563Z,65.17
2022-09-03T01:05:57.476Z,66.04
2022-09-03T01:06:54.525Z,64.89
2022-09-03T01:07:54.512Z,64.92
2022-09-03T01:08:54.494Z,64.82
2022-09-03T01:09:54.480Z,64.92
2022-09-03T01:10:54.464Z,64.98
2022-09-03T01:11:54.447Z,65.46
2022-09-03T01:12:54.436Z,65.37
2022-09-03T01:13:54.418Z,66.14
2022-09-03T01:14:54.399Z,66.23
2022-09-03T01:15:54.491Z,65.56
2022-09-03T01:16:54.372Z,65.56
2022-09-03T01:17:54.357Z,65.66
2022-09-03T01:18:54.343Z,66.33
2022-09-03T01:19:54.321Z,65.75
2022-09-03T01:20:54.303Z,65.84
2022-09-03T01:21:54.295Z,66.14
2022-09-03T01:22:54.276Z,66.42
2022-09-03T01:23:54.259Z,66.23
2022-09-03T01:24:54.247Z,65.75
2022-09-03T01:25:54.227Z,65.84
2022-09-03T01:26:54.215Z,66.14
2022-09-03T01:27:54.196Z,66.42
2022-09-03T01:28:54.182Z,66.91
2022-09-03T01:29:54.160Z,66.23
2022-09-03T01:30:54.179Z,65.94
2022-09-03T01:31:54.131Z,66.33
2022-09-03T01:32:54.115Z,66.33
2022-09-03T01:33:54.099Z,66.14
2022-09-03T01:34:54.093Z,66.91
2022-09-03T01:35:54.070Z,67.00
2022-09-03T01:36:54.056Z,66.58
2022-09-03T01:37:54.035Z,66.97
2022-09-03T01:38:54.023Z,66.68
2022-09-03T01:39:54.086Z,67.16
2022-09-03T01:40:53.990Z,67.35
2022-09-03T01:41:53.974Z,68.12
2022-09-03T01:42:53.963Z,67.51
2022-09-03T01:43:53.937Z,67.83
2022-09-03T01:44:53.923Z,68.47
2022-09-03T01:45:53.965Z,68.12
2022-09-03T01:46:53.898Z,67.54
2022-09-03T01:47:53.879Z,67.90
2022-09-03T01:48:53.862Z,67.80
2022-09-03T01:49:53.846Z,67.93
2022-09-03T01:50:53.828Z,67.93
2022-09-03T01:51:53.811Z,67.93
2022-09-03T01:52:53.798Z,67.83
2022-09-03T01:53:53.785Z,67.83
2022-09-03T01:54:53.762Z,67.83
2022-09-03T01:55:53.744Z,67.83
2022-09-03T01:56:53.734Z,67.93
2022-09-03T01:57:53.718Z,67.83
2022-09-03T01:58:53.697Z,67.74
2022-09-03T01:59:53.683Z,67.83
2022-09-03T02:00:53.668Z,67.64
2022-09-03T02:01:53.709Z,66.77
2022-09-03T02:02:53.757Z,66.68
2022-09-03T02:03:53.620Z,67.83
2022-09-03T02:04:53.600Z,67.93
2022-09-03T02:05:53.584Z,68.02
2022-09-03T02:06:53.568Z,67.74
2022-09-03T02:07:53.553Z,67.99
2022-09-03T02:08:53.541Z,67.83
2022-09-03T02:09:53.523Z,68.02
2022-09-03T02:10:53.512Z,68.21
2022-09-03T02:11:53.488Z,67.64
2022-09-03T02:12:53.476Z,67.70
2022-09-03T02:13:53.462Z,68.28
2022-09-03T02:14:53.445Z,68.47
2022-09-03T02:15:53.469Z,68.37
2022-09-03T02:16:53.408Z,67.99
2022-09-03T02:17:53.393Z,68.28
2022-09-03T02:18:53.379Z,68.18
2022-09-03T02:19:53.360Z,67.80
2022-09-03T02:20:53.342Z,68.28
2022-09-03T02:21:53.325Z,68.37
2022-09-03T02:22:53.311Z,68.28
2022-09-03T02:23:53.290Z,68.18
2022-09-03T02:24:53.274Z,68.28
2022-09-03T02:25:53.260Z,68.28
2022-09-03T02:26:53.247Z,68.37
2022-09-03T02:27:53.228Z,68.47
2022-09-03T02:28:53.212Z,68.18
2022-09-03T02:29:53.196Z,68.47
2022-09-03T02:30:53.240Z,68.37
2022-09-03T02:31:53.165Z,68.37
2022-09-03T02:32:53.150Z,68.08
2022-09-03T02:33:53.130Z,68.95
2022-09-03T02:34:53.110Z,68.47
2022-09-03T02:35:53.094Z,67.99
2022-09-03T02:36:53.079Z,68.28
2022-09-03T02:37:53.066Z,68.85
2022-09-03T02:38:53.050Z,68.76
2022-09-03T02:39:53.113Z,68.95
2022-09-03T02:40:53.019Z,68.57
2022-09-03T02:41:53.003Z,68.47
2022-09-03T02:42:52.987Z,68.66
2022-09-03T02:43:52.962Z,69.05
2022-09-03T02:44:52.953Z,68.95
2022-09-03T02:45:52.995Z,69.05
2022-09-03T02:46:52.918Z,68.57
2022-09-03T02:47:52.902Z,68.57
2022-09-03T02:48:52.885Z,68.85
2022-09-03T02:49:52.866Z,69.05
2022-09-03T02:50:52.850Z,68.57
2022-09-03T02:51:52.834Z,68.57
2022-09-03T02:52:52.818Z,68.95
2022-09-03T02:53:52.801Z,69.53
2022-09-03T02:54:52.784Z,69.30
2022-09-03T02:55:52.767Z,69.78
2022-09-03T02:56:52.755Z,70.07
2022-09-03T02:57:52.736Z,69.68
2022-09-03T02:58:52.719Z,69.97
2022-09-03T02:59:52.703Z,69.97
2022-09-03T03:00:52.733Z,70.26
2022-09-03T03:01:52.791Z,70.17
2022-09-03T03:02:52.715Z,69.62
2022-09-03T03:03:52.634Z,70.01
2022-09-03T03:04:52.623Z,70.10
2022-09-03T03:05:52.610Z,69.91
2022-09-03T03:06:52.591Z,70.10
2022-09-03T03:07:52.570Z,69.81
2022-09-03T03:08:52.556Z,69.81
2022-09-03T03:09:52.540Z,70.10
2022-09-03T03:10:52.521Z,69.81
2022-09-03T03:11:52.507Z,69.43
2022-09-03T03:12:52.491Z,69.14
2022-09-03T03:13:52.473Z,69.49
2022-09-03T03:14:52.459Z,69.81
2022-09-03T03:15:52.442Z,69.87
2022-09-03T03:16:52.479Z,69.59
2022-09-03T03:17:52.409Z,69.78
2022-09-03T03:18:52.389Z,69.91
2022-09-03T03:19:52.371Z,69.72
2022-09-03T03:20:52.355Z,70.17
2022-09-03T03:21:52.340Z,70.07
2022-09-03T03:22:52.322Z,69.59
2022-09-03T03:23:52.308Z,69.62
2022-09-03T03:24:52.291Z,69.91
2022-09-03T03:25:52.276Z,69.91
2022-09-03T03:26:52.263Z,69.91
2022-09-03T03:27:52.239Z,70.01
2022-09-03T03:28:52.218Z,69.81
2022-09-03T03:29:52.207Z,70.17
2022-09-03T03:30:52.237Z,70.17
2022-09-03T03:31:52.176Z,69.97
2022-09-03T03:32:52.156Z,70.20
2022-09-03T03:33:52.141Z,70.17
2022-09-03T03:34:52.130Z,70.17
2022-09-03T03:35:52.105Z,70.17
2022-09-03T03:36:52.097Z,69.87
2022-09-03T03:37:52.073Z,70.55
2022-09-03T03:38:52.061Z,70.45
2022-09-03T03:39:52.093Z,70.17
2022-09-03T03:40:52.024Z,70.07
2022-09-03T03:41:52.006Z,70.07
2022-09-03T03:42:51.993Z,70.45
2022-09-03T03:43:51.973Z,70.45
2022-09-03T03:44:51.958Z,70.74
2022-09-03T03:45:51.981Z,70.74
2022-09-03T03:46:51.925Z,71.03
2022-09-03T03:47:51.904Z,71.03
2022-09-03T03:48:51.894Z,70.84
2022-09-03T03:49:51.877Z,70.93
2022-09-03T03:50:51.861Z,70.74
2022-09-03T03:51:51.842Z,71.03
2022-09-03T03:52:51.826Z,71.41
2022-09-03T03:53:51.810Z,71.41
2022-09-03T03:54:51.788Z,72.08
2022-09-03T03:55:51.775Z,71.80
2022-09-03T03:56:55.562Z,71.41
2022-09-03T03:57:51.739Z,71.41
2022-09-03T03:58:51.721Z,71.51
2022-09-03T03:59:51.702Z,70.93
2022-09-03T04:00:51.720Z,71.28
2022-09-03T04:01:51.675Z,71.61
2022-09-03T04:02:51.740Z,71.31
2022-09-03T04:03:51.637Z,71.41
2022-09-03T04:04:51.624Z,71.41
2022-09-03T04:05:51.604Z,71.51
2022-09-03T04:06:51.593Z,71.61
2022-09-03T04:07:51.577Z,71.51
2022-09-03T04:08:51.558Z,72.08
2022-09-03T04:09:51.541Z,71.80
2022-09-03T04:10:51.523Z,71.51
2022-09-03T04:11:51.506Z,71.89
2022-09-03T04:12:51.488Z,71.98
2022-09-03T04:13:51.473Z,71.98
2022-09-03T04:14:51.454Z,71.98
2022-09-03T04:15:51.442Z,71.89
2022-09-03T04:16:51.553Z,71.61
2022-09-03T04:17:51.406Z,71.70
2022-09-03T04:18:51.392Z,71.61
2022-09-03T04:19:51.371Z,71.61
2022-09-03T04:20:51.356Z,71.31
2022-09-03T04:21:51.337Z,71.41
2022-09-03T04:22:52.069Z,71.61
2022-09-03T04:23:51.300Z,71.51
2022-09-03T04:24:51.291Z,71.41
2022-09-03T04:25:51.268Z,72.08
2022-09-03T04:26:51.254Z,71.89
2022-09-03T04:27:51.242Z,72.08
2022-09-03T04:28:51.219Z,71.80
2022-09-03T04:29:51.202Z,72.08
2022-09-03T04:30:51.255Z,71.89
2022-09-03T04:31:51.165Z,71.80
2022-09-03T04:32:52.478Z,71.89
2022-09-03T04:33:51.154Z,71.51
2022-09-03T04:34:51.120Z,71.80
2022-09-03T04:35:51.102Z,71.89
2022-09-03T04:36:52.997Z,71.70
2022-09-03T04:37:51.067Z,71.98
2022-09-03T04:38:51.058Z,72.18
2022-09-03T04:39:51.076Z,72.28
2022-09-03T04:40:51.017Z,72.08
2022-09-03T04:41:51.002Z,72.28
2022-09-03T04:42:50.983Z,72.47
2022-09-03T04:43:51.516Z,72.66
2022-09-03T04:44:50.950Z,71.80
2022-09-03T04:45:50.977Z,72.28
2022-09-03T04:46:50.922Z,72.18
2022-09-03T04:47:50.904Z,72.08
2022-09-03T04:48:50.880Z,72.28
2022-09-03T04:49:50.867Z,72.47
2022-09-03T04:50:50.846Z,72.37
2022-09-03T04:51:50.834Z,72.72
2022-09-03T04:52:50.816Z,72.63
2022-09-03T04:53:50.801Z,72.63
2022-09-03T04:54:50.785Z,73.14
2022-09-03T04:55:50.769Z,73.04
2022-09-03T04:56:50.747Z,72.28
2022-09-03T04:57:50.731Z,72.43
2022-09-03T04:58:51.216Z,72.72
2022-09-03T04:59:50.693Z,72.53
2022-09-03T05:00:50.739Z,72.63
2022-09-03T05:01:50.683Z,72.72
2022-09-03T05:02:50.650Z,72.24
2022-09-03T05:03:50.631Z,72.91
2022-09-03T05:04:50.611Z,72.24
2022-09-03T05:05:52.465Z,73.00
2022-09-03T05:06:50.583Z,72.81
2022-09-03T05:07:50.561Z,73.58
2022-09-03T05:08:50.545Z,73.30
2022-09-03T05:09:50.528Z,73.39
2022-09-03T05:10:50.509Z,73.39
2022-09-03T05:11:50.491Z,73.39
2022-09-03T05:12:50.479Z,73.30
2022-09-03T05:13:50.460Z,73.30
2022-09-03T05:14:50.442Z,73.58
2022-09-03T05:15:50.427Z,73.39
2022-09-03T05:16:53.024Z,73.30
2022-09-03T05:17:50.393Z,73.10
2022-09-03T05:18:50.378Z,73.39
2022-09-03T05:19:50.359Z,73.39
2022-09-03T05:20:50.342Z,73.20
2022-09-03T05:21:50.321Z,73.39
2022-09-03T05:22:50.312Z,73.39
2022-09-03T05:23:50.290Z,73.77
2022-09-03T05:24:50.277Z,74.16
2022-09-03T05:25:50.259Z,73.97
2022-09-03T05:26:50.240Z,73.97
2022-09-03T05:27:50.220Z,74.35
2022-09-03T05:28:50.203Z,74.93
2022-09-03T05:29:50.192Z,74.54
2022-09-03T05:30:50.171Z,74.79
2022-09-03T05:31:50.205Z,74.98
2022-09-03T05:32:50.150Z,75.08
2022-09-03T05:33:50.118Z,75.75
2022-09-03T05:34:50.113Z,76.14
2022-09-03T05:35:50.087Z,75.95
2022-09-03T05:36:50.074Z,76.04
2022-09-03T05:37:50.054Z,76.52
2022-09-03T05:38:50.041Z,76.52
2022-09-03T05:39:50.096Z,76.14
2022-09-03T05:40:50.005Z,76.42
2022-09-03T05:41:49.987Z,75.95
2022-09-03T05:42:49.966Z,76.42
2022-09-03T05:43:49.948Z,75.56
2022-09-03T05:44:49.963Z,75.95
2022-09-03T05:45:49.953Z,76.04
2022-09-03T05:46:49.897Z,75.85
2022-09-03T05:47:49.883Z,75.56
2022-09-03T05:48:49.880Z,75.95
2022-09-03T05:49:49.852Z,76.32
2022-09-03T05:50:49.832Z,75.85
2022-09-03T05:51:49.815Z,76.32
2022-09-03T05:52:49.799Z,76.14
2022-09-03T05:53:49.782Z,76.14
2022-09-03T05:54:49.761Z,76.52
2022-09-03T05:55:49.748Z,76.52
2022-09-03T05:56:49.740Z,76.52
2022-09-03T05:57:49.714Z,75.95
2022-09-03T05:58:49.694Z,76.04
2022-09-03T05:59:49.678Z,76.07
2022-09-03T06:00:49.660Z,75.95
2022-09-03T06:01:51.464Z,76.07
2022-09-03T06:02:49.766Z,76.17
2022-09-03T06:03:49.633Z,76.04
2022-09-03T06:04:49.591Z,75.95
2022-09-03T06:05:49.576Z,75.75
2022-09-03T06:06:49.559Z,76.14
2022-09-03T06:07:49.546Z,75.65
2022-09-03T06:08:49.527Z,76.04
2022-09-03T06:09:49.509Z,76.23
2022-09-03T06:10:49.492Z,76.32
2022-09-03T06:11:49.471Z,76.04
2022-09-03T06:12:49.449Z,76.52
2022-09-03T06:13:49.438Z,76.17
2022-09-03T06:14:49.422Z,76.04
2022-09-03T06:15:49.403Z,76.37
2022-09-03T06:16:49.631Z,76.65
2022-09-03T06:17:49.369Z,75.60
2022-09-03T06:18:49.352Z,75.89
2022-09-03T06:19:49.338Z,75.89
2022-09-03T06:20:49.319Z,75.60
2022-09-03T06:21:49.304Z,75.89
2022-09-03T06:22:49.288Z,76.07
2022-09-03T06:23:49.271Z,76.07
2022-09-03T06:24:49.252Z,75.89
2022-09-03T06:25:49.228Z,76.07
2022-09-03T06:26:49.217Z,75.79
2022-09-03T06:27:49.197Z,75.89
2022-09-03T06:28:49.184Z,75.89
2022-09-03T06:29:49.166Z,76.07
2022-09-03T06:30:49.146Z,75.89
2022-09-03T06:31:49.164Z,75.12
2022-09-03T06:32:49.114Z,75.40
2022-09-03T06:33:49.097Z,76.07
2022-09-03T06:34:49.084Z,75.25
2022-09-03T06:35:49.064Z,75.35
2022-09-03T06:36:49.045Z,74.87
2022-09-03T06:37:49.028Z,75.06
2022-09-03T06:38:49.010Z,75.25
2022-09-03T06:39:49.083Z,74.96
2022-09-03T06:40:48.985Z,75.25
2022-09-03T06:41:48.966Z,75.15
2022-09-03T06:42:48.945Z,74.77
2022-09-03T06:43:48.929Z,74.68
2022-09-03T06:44:48.913Z,74.71
2022-09-03T06:45:48.935Z,73.85
2022-09-03T06:46:48.882Z,74.04
2022-09-03T06:47:48.868Z,74.04
2022-09-03T06:48:48.845Z,74.52
2022-09-03T06:49:48.832Z,74.43
2022-09-03T06:50:48.814Z,74.52
2022-09-03T06:51:48.798Z,74.55
2022-09-03T06:52:48.778Z,74.17
2022-09-03T06:53:48.763Z,73.02
2022-09-03T06:54:48.743Z,72.34
2022-09-03T06:55:48.751Z,72.16
2022-09-03T06:56:48.720Z,72.16
2022-09-03T06:57:48.704Z,72.64
2022-09-03T06:58:48.690Z,72.25
2022-09-03T06:59:48.663Z,72.29
2022-09-03T07:00:48.717Z,71.81
2022-09-03T07:01:48.820Z,72.09
2022-09-03T07:02:48.615Z,72.00
2022-09-03T07:03:48.603Z,71.52
2022-09-03T07:04:48.584Z,70.88
2022-09-03T07:05:48.571Z,70.40
2022-09-03T07:06:48.585Z,70.11
2022-09-03T07:07:48.535Z,70.98
2022-09-03T07:08:48.519Z,70.11
2022-09-03T07:09:48.606Z,69.92
2022-09-03T07:10:48.489Z,69.82
2022-09-03T07:11:49.003Z,69.15
2022-09-03T07:12:48.457Z,69.15
2022-09-03T07:13:48.443Z,69.63
2022-09-03T07:14:48.425Z,70.24
2022-09-03T07:15:48.438Z,68.67
2022-09-03T07:16:48.399Z,68.41
2022-09-03T07:17:48.378Z,68.13
2022-09-03T07:18:48.364Z,68.32
2022-09-03T07:19:48.350Z,68.13
2022-09-03T07:20:48.333Z,68.22
2022-09-03T07:21:50.473Z,68.32
2022-09-03T07:22:48.300Z,68.51
2022-09-03T07:23:48.289Z,68.41
2022-09-03T07:24:48.273Z,68.99
2022-09-03T07:25:48.257Z,68.51
2022-09-03T07:26:48.240Z,67.74
2022-09-03T07:27:48.227Z,68.16
2022-09-03T07:28:48.209Z,68.26
2022-09-03T07:29:48.196Z,68.06
2022-09-03T07:30:48.179Z,67.19
2022-09-03T07:31:48.215Z,66.81
2022-09-03T07:32:48.149Z,66.71
2022-09-03T07:33:48.132Z,67.81
2022-09-03T07:34:48.119Z,67.81
2022-09-03T07:35:48.105Z,68.00
2022-09-03T07:36:49.059Z,68.04
2022-09-03T07:37:48.074Z,66.97
2022-09-03T07:38:48.064Z,66.69
2022-09-03T07:39:48.099Z,65.91
2022-09-03T07:40:48.030Z,66.14
2022-09-03T07:41:48.045Z,65.14
2022-09-03T07:42:50.111Z,64.79
2022-09-03T07:43:47.985Z,65.27
2022-09-03T07:44:47.969Z,64.98
2022-09-03T07:45:47.956Z,63.92
2022-09-03T07:46:48.280Z,64.69
2022-09-03T07:47:47.928Z,64.59
2022-09-03T07:48:47.904Z,64.50
2022-09-03T07:49:48.692Z,64.43
2022-09-03T07:50:47.877Z,64.34
2022-09-03T07:51:47.867Z,64.63
2022-09-03T07:52:47.855Z,63.95
2022-09-03T07:53:47.843Z,63.37
2022-09-03T07:54:47.822Z,63.37
2022-09-03T07:55:47.891Z,63.47
2022-09-03T07:56:47.794Z,63.98
2022-09-03T07:57:47.787Z,63.40
2022-09-03T07:58:47.764Z,62.73
2022-09-03T07:59:47.755Z,62.54
2022-09-03T08:00:47.791Z,62.25
2022-09-03T08:01:47.730Z,62.34
2022-09-03T08:02:47.719Z,62.54
2022-09-03T08:03:47.763Z,62.44
2022-09-03T08:04:47.688Z,62.37
2022-09-03T08:05:47.670Z,62.37
2022-09-03T08:06:47.654Z,61.70
2022-09-03T08:07:47.647Z,62.28
2022-09-03T08:08:47.632Z,62.76
2022-09-03T08:09:47.613Z,61.60
2022-09-03T08:10:47.605Z,62.02
2022-09-03T08:11:47.584Z,60.47
2022-09-03T08:12:47.575Z,60.93
2022-09-03T08:13:47.559Z,61.12
2022-09-03T08:14:47.544Z,60.76
2022-09-03T08:15:47.630Z,60.38
2022-09-03T08:16:47.517Z,60.76
2022-09-03T08:17:47.509Z,60.38
2022-09-03T08:18:47.519Z,60.38
2022-09-03T08:19:47.478Z,60.47
2022-09-03T08:20:47.467Z,60.38
2022-09-03T08:21:47.459Z,60.57
2022-09-03T08:22:47.438Z,60.50
2022-09-03T08:23:47.428Z,60.11
2022-09-03T08:24:47.414Z,59.25
2022-09-03T08:25:47.397Z,59.38
2022-09-03T08:26:51.688Z,59.25
2022-09-03T08:27:47.374Z,59.15
2022-09-03T08:28:47.363Z,59.25
2022-09-03T08:29:47.347Z,59.76
2022-09-03T08:30:47.331Z,60.34
2022-09-03T08:31:47.434Z,59.31
2022-09-03T08:32:47.304Z,58.72
2022-09-03T08:33:47.293Z,58.92
2022-09-03T08:34:47.283Z,58.17
2022-09-03T08:35:47.276Z,57.88
2022-09-03T08:36:47.574Z,57.79
2022-09-03T08:37:47.242Z,57.69
2022-09-03T08:38:47.226Z,57.30
2022-09-03T08:39:47.307Z,57.37
2022-09-03T08:40:47.204Z,57.11
2022-09-03T08:41:47.191Z,56.92
2022-09-03T08:42:47.181Z,57.01
2022-09-03T08:43:47.165Z,58.01
2022-09-03T08:44:47.158Z,57.23
2022-09-03T08:45:47.143Z,56.65
2022-09-03T08:46:47.202Z,56.26
2022-09-03T08:47:47.117Z,57.14
2022-09-03T08:48:47.107Z,57.04
2022-09-03T08:49:47.100Z,56.68
2022-09-03T08:50:47.085Z,55.62
2022-09-03T08:51:47.068Z,55.62
2022-09-03T08:52:47.056Z,55.42
2022-09-03T08:53:47.045Z,55.62
2022-09-03T08:54:47.033Z,55.81
2022-09-03T08:55:47.017Z,55.83
2022-09-03T08:56:47.013Z,55.06
2022-09-03T08:57:46.998Z,55.06
2022-09-03T08:58:46.985Z,55.26
2022-09-03T08:59:46.973Z,54.48
2022-09-03T09:00:46.962Z,54.19
2022-09-03T09:01:47.087Z,54.19
2022-09-03T09:02:47.000Z,54.38
2022-09-03T09:03:46.932Z,54.26
2022-09-03T09:04:46.915Z,55.04
2022-09-03T09:05:46.907Z,54.86
2022-09-03T09:06:46.899Z,55.28
2022-09-03T09:07:46.885Z,54.31
2022-09-03T09:08:46.868Z,53.73
2022-09-03T09:09:46.859Z,53.63
2022-09-03T09:10:46.849Z,53.73
2022-09-03T09:11:46.841Z,53.92
2022-09-03T09:12:47.161Z,53.34
2022-09-03T09:13:46.819Z,53.63
2022-09-03T09:14:46.808Z,54.34
2022-09-03T09:15:46.828Z,54.53
2022-09-03T09:16:46.782Z,53.39
2022-09-03T09:17:46.775Z,53.00
2022-09-03T09:18:46.763Z,53.13
2022-09-03T09:19:46.753Z,51.97
2022-09-03T09:20:46.739Z,52.03
2022-09-03T09:21:46.737Z,51.75
2022-09-03T09:22:47.427Z,51.65
2022-09-03T09:23:46.709Z,51.77
2022-09-03T09:24:46.700Z,51.77
2022-09-03T09:25:46.689Z,51.48
2022-09-03T09:26:46.676Z,51.38
2022-09-03T09:27:46.666Z,52.06
2022-09-03T09:28:46.659Z,52.19
2022-09-03T09:29:46.646Z,52.09
2022-09-03T09:30:46.656Z,51.23
2022-09-03T09:31:46.633Z,50.14
2022-09-03T09:32:46.617Z,50.16
2022-09-03T09:33:46.604Z,50.07
2022-09-03T09:34:51.796Z,50.26
2022-09-03T09:35:46.589Z,50.16
2022-09-03T09:36:46.573Z,49.46
2022-09-03T09:37:46.562Z,50.04
2022-09-03T09:38:46.557Z,50.63
2022-09-03T09:39:46.633Z,50.34
2022-09-03T09:40:46.534Z,50.51
2022-09-03T09:41:46.522Z,50.77
2022-09-03T09:42:46.512Z,51.65
2022-09-03T09:43:46.506Z,51.35
2022-09-03T09:44:46.489Z,51.84
2022-09-03T09:45:46.481Z,51.84
2022-09-03T09:46:49.233Z,51.75
2022-09-03T09:47:46.468Z,51.84
2022-09-03T09:48:46.449Z,51.35
2022-09-03T09:49:46.442Z,51.16
2022-09-03T09:50:46.429Z,51.65
2022-09-03T09:51:46.421Z,51.93
2022-09-03T09:52:46.405Z,51.28
2022-09-03T09:53:46.400Z,51.50
2022-09-03T09:54:46.386Z,51.79
2022-09-03T09:55:46.378Z,49.85
2022-09-03T09:56:46.364Z,49.95
2022-09-03T09:57:46.362Z,50.04
2022-09-03T09:58:46.345Z,50.12
2022-09-03T09:59:46.337Z,49.76
2022-09-03T10:00:46.326Z,50.24
2022-09-03T10:01:46.397Z,49.76
2022-09-03T10:02:46.336Z,49.97
2022-09-03T10:03:46.292Z,49.90
2022-09-03T10:04:46.289Z,49.58
2022-09-03T10:05:46.272Z,49.10
2022-09-03T10:06:46.266Z,49.29
2022-09-03T10:07:46.257Z,48.68
2022-09-03T10:08:46.244Z,49.15
2022-09-03T10:09:46.244Z,50.24
2022-09-03T10:10:46.227Z,50.43
2022-09-03T10:11:46.218Z,51.04
2022-09-03T10:12:46.204Z,50.48
2022-09-03T10:13:46.196Z,49.80
2022-09-03T10:14:46.182Z,50.19
2022-09-03T10:15:46.228Z,50.31
2022-09-03T10:16:46.166Z,50.60
2022-09-03T10:17:46.156Z,48.66
2022-09-03T10:18:46.151Z,48.39
2022-09-03T10:19:46.135Z,48.27
2022-09-03T10:20:46.131Z,48.85
2022-09-03T10:21:46.125Z,48.58
2022-09-03T10:22:56.206Z,48.39
2022-09-03T10:23:46.093Z,48.39
2022-09-03T10:24:46.084Z,48.29
2022-09-03T10:25:46.080Z,48.88
2022-09-03T10:26:46.067Z,48.39
2022-09-03T10:27:46.055Z,48.58
2022-09-03T10:28:46.048Z,48.58
2022-09-03T10:29:46.045Z,48.68
2022-09-03T10:30:46.075Z,48.61
2022-09-03T10:31:46.013Z,48.41
2022-09-03T10:32:48.394Z,46.54
2022-09-03T10:33:45.996Z,47.71
2022-09-03T10:34:45.991Z,47.32
2022-09-03T10:35:45.976Z,47.90
2022-09-03T10:36:45.964Z,48.00
2022-09-03T10:37:45.960Z,47.03
2022-09-03T10:38:45.951Z,46.83
2022-09-03T10:39:50.198Z,46.73
2022-09-03T10:40:45.926Z,47.10
2022-09-03T10:41:45.919Z,47.20
2022-09-03T10:42:45.916Z,47.98
2022-09-03T10:43:45.899Z,47.80
2022-09-03T10:44:45.895Z,48.49
2022-09-03T10:45:45.881Z,48.58
2022-09-03T10:46:45.930Z,48.00
2022-09-03T10:47:45.862Z,47.13
2022-09-03T10:48:45.851Z,46.44
2022-09-03T10:49:45.840Z,47.13
2022-09-03T10:50:45.832Z,47.13
2022-09-03T10:51:49.378Z,47.13
2022-09-03T10:52:45.811Z,47.10
2022-09-03T10:53:45.804Z,47.59
2022-09-03T10:54:45.791Z,47.98
2022-09-03T10:55:45.784Z,47.80
2022-09-03T10:56:45.772Z,47.90
2022-09-03T10:57:45.766Z,47.63
2022-09-03T10:58:45.756Z,47.15
2022-09-03T10:59:45.738Z,45.98
2022-09-03T11:00:45.733Z,46.86
2022-09-03T11:01:45.781Z,47.34
2022-09-03T11:02:45.787Z,47.92
2022-09-03T11:03:45.746Z,47.36
2022-09-03T11:04:45.696Z,46.97
2022-09-03T11:05:45.693Z,46.39
2022-09-03T11:06:45.673Z,47.36
2022-09-03T11:07:45.665Z,46.20
2022-09-03T11:08:45.653Z,46.30
2022-09-03T11:09:45.645Z,47.36
2022-09-03T11:10:45.633Z,47.17
2022-09-03T11:11:45.623Z,48.05
2022-09-03T11:12:45.613Z,47.75
2022-09-03T11:13:45.606Z,46.97
2022-09-03T11:14:45.596Z,46.22
2022-09-03T11:15:45.614Z,46.12
2022-09-03T11:16:45.574Z,45.54
2022-09-03T11:17:45.565Z,45.39
2022-09-03T11:18:45.559Z,46.47
2022-09-03T11:19:45.547Z,46.66
2022-09-03T11:20:45.535Z,46.83
2022-09-03T11:21:45.531Z,47.30
2022-09-03T11:22:45.515Z,47.96
2022-09-03T11:23:45.506Z,48.13
2022-09-03T11:24:45.494Z,48.80
2022-09-03T11:25:45.489Z,49.58
2022-09-03T11:26:45.475Z,49.37
2022-09-03T11:27:45.464Z,49.76
2022-09-03T11:28:45.517Z,50.14
2022-09-03T11:29:45.445Z,50.82
2022-09-03T11:30:45.489Z,50.43
2022-09-03T11:31:45.421Z,51.50
2022-09-03T11:32:45.414Z,51.89
2022-09-03T11:33:45.408Z,52.28
2022-09-03T11:34:45.394Z,52.86
2022-09-03T11:35:45.378Z,52.50
2022-09-03T11:36:48.000Z,50.53
2022-09-03T11:37:45.365Z,50.04
2022-09-03T11:38:45.349Z,50.34
2022-09-03T11:39:45.374Z,50.21
2022-09-03T11:40:45.326Z,50.99
2022-09-03T11:41:45.330Z,51.97
2022-09-03T11:42:45.311Z,51.87
2022-09-03T11:43:45.300Z,51.06
2022-09-03T11:44:51.389Z,51.93
2022-09-03T11:45:45.339Z,51.87
2022-09-03T11:46:45.264Z,53.22
2022-09-03T11:47:45.264Z,51.48
2022-09-03T11:48:45.250Z,50.41
2022-09-03T11:49:45.231Z,51.57
2022-09-03T11:50:45.226Z,51.67
2022-09-03T11:51:45.214Z,52.03
2022-09-03T11:52:45.197Z,51.75
2022-09-03T11:53:45.188Z,52.06
2022-09-03T11:54:45.186Z,52.35
2022-09-03T11:55:45.168Z,52.15
2022-09-03T11:56:45.159Z,52.35
2022-09-03T11:57:45.154Z,52.64
2022-09-03T11:58:45.133Z,53.03
2022-09-03T11:59:45.123Z,51.87
2022-09-03T12:00:45.111Z,51.84
2022-09-03T12:01:45.096Z,52.33
2022-09-03T12:02:45.160Z,52.91
2022-09-03T12:03:45.077Z,53.22
2022-09-03T12:04:45.155Z,53.61
2022-09-03T12:05:45.065Z,52.84
2022-09-03T12:06:45.045Z,52.37
2022-09-03T12:07:45.030Z,52.09
2022-09-03T12:08:45.023Z,53.08
2022-09-03T12:09:45.013Z,53.18
2022-09-03T12:10:45.003Z,52.92
2022-09-03T12:11:44.995Z,50.29
2022-09-03T12:12:44.977Z,50.70
2022-09-03T12:13:44.966Z,51.12
2022-09-03T12:14:44.962Z,51.61
2022-09-03T12:15:44.987Z,49.07
2022-09-03T12:16:44.951Z,49.46
2022-09-03T12:17:44.929Z,49.49
2022-09-03T12:18:44.923Z,49.39
2022-09-03T12:19:44.911Z,49.00
2022-09-03T12:20:44.903Z,48.51
2022-09-03T12:21:44.892Z,47.15
2022-09-03T12:22:44.937Z,47.27
2022-09-03T12:23:44.875Z,48.05
2022-09-03T12:24:44.858Z,48.44
2022-09-03T12:25:44.847Z,48.05
2022-09-03T12:26:44.837Z,47.85
2022-09-03T12:27:44.842Z,47.75
2022-09-03T12:28:44.924Z,47.25
2022-09-03T12:29:44.810Z,47.25
2022-09-03T12:30:44.924Z,48.02
2022-09-03T12:31:44.785Z,48.00
2022-09-03T12:32:44.780Z,48.41
2022-09-03T12:33:44.767Z,48.61
2022-09-03T12:34:44.754Z,48.10
2022-09-03T12:36:00.495Z,48.00
2022-09-03T12:36:44.743Z,48.78
2022-09-03T12:39:10.323Z,48.39
2022-09-03T12:41:44.785Z,48.46
2022-09-03T12:42:44.677Z,48.73
2022-09-03T12:43:49.843Z,48.80
2022-09-03T12:44:44.662Z,49.29
2022-09-03T12:46:45.210Z,50.36
2022-09-03T12:47:44.696Z,50.95
2022-09-03T12:48:44.820Z,51.45
2022-09-03T12:49:44.615Z,51.65
2022-09-03T12:50:49.439Z,49.99
2022-09-03T12:51:51.068Z,50.90
2022-09-03T12:52:44.568Z,50.12
2022-09-03T12:53:44.584Z,50.43
2022-09-03T12:54:44.560Z,49.27
2022-09-03T12:55:44.562Z,50.53
2022-09-03T12:56:44.529Z,49.27